createdAt,value
2022-07-30T00:00:45.915Z,4.95
2022-07-30T00:01:47.240Z,7.88
2022-07-30T00:02:50.554Z,4.72
2022-07-30T00:03:51.939Z,6.10
2022-07-30T00:04:53.423Z,4.30
2022-07-30T00:05:54.914Z,6.38
2022-07-30T00:06:56.355Z,5.50
2022-07-30T00:07:57.714Z,5.05
2022-07-30T00:08:59.048Z,6.07
2022-07-30T00:10:00.387Z,6.05
2022-07-30T00:11:01.730Z,6.00
2022-07-30T00:12:03.453Z,9.00
2022-07-30T00:13:05.077Z,4.78
2022-07-30T00:14:06.424Z,5.47
2022-07-30T00:15:08.137Z,5.60
2022-07-30T00:16:09.492Z,5.28
2022-07-30T00:17:10.898Z,7.05
2022-07-30T00:18:12.365Z,6.07
2022-07-30T00:19:14.764Z,7.25
2022-07-30T00:20:16.997Z,5.57
2022-07-30T00:21:34.524Z,7.28
2022-07-30T00:22:38.173Z,6.70
2022-07-30T00:23:39.511Z,7.03
2022-07-30T00:25:00.833Z,6.63
2022-07-30T00:26:02.244Z,5.10
2022-07-30T00:27:03.889Z,6.70
2022-07-30T00:28:05.516Z,9.23
2022-07-30T00:29:06.895Z,6.72
2022-07-30T00:30:08.792Z,6.63
2022-07-30T00:31:10.193Z,8.60
2022-07-30T00:32:11.944Z,6.20
2022-07-30T00:33:13.611Z,8.13
2022-07-30T00:34:15.445Z,7.68
2022-07-30T00:35:16.985Z,6.30
2022-07-30T00:36:19.602Z,7.90
2022-07-30T00:37:21.718Z,8.80
2022-07-30T00:38:23.151Z,6.22
2022-07-30T00:39:24.661Z,6.30
2022-07-30T00:40:26.052Z,5.03
2022-07-30T00:41:27.440Z,6.40
2022-07-30T00:42:38.846Z,5.53
2022-07-30T00:43:40.288Z,7.78
2022-07-30T00:44:41.647Z,6.13
2022-07-30T00:45:43.571Z,5.93
2022-07-30T00:46:45.742Z,8.48
2022-07-30T00:47:47.205Z,5.65
2022-07-30T00:48:48.668Z,4.50
2022-07-30T00:49:50.057Z,9.88
2022-07-30T00:50:51.734Z,6.75
2022-07-30T00:51:53.773Z,6.43
2022-07-30T00:52:55.134Z,5.78
2022-07-30T00:53:56.490Z,7.68
2022-07-30T00:54:58.303Z,6.22
2022-07-30T00:55:59.681Z,5.88
2022-07-30T00:57:01.876Z,5.55
2022-07-30T00:58:03.430Z,5.45
2022-07-30T00:59:05.380Z,5.53
2022-07-30T01:00:08.744Z,5.43
2022-07-30T01:01:10.192Z,6.53
2022-07-30T01:02:13.040Z,6.20
2022-07-30T01:03:14.555Z,6.78
2022-07-30T01:04:15.943Z,6.80
2022-07-30T01:05:17.390Z,6.35
2022-07-30T01:06:18.844Z,6.68
2022-07-30T01:07:20.270Z,8.25
2022-07-30T01:08:21.708Z,6.30
2022-07-30T01:09:23.093Z,5.55
2022-07-30T01:10:24.775Z,5.43
2022-07-30T01:11:31.741Z,6.78
2022-07-30T01:12:33.903Z,6.30
2022-07-30T01:13:35.234Z,6.13
2022-07-30T01:14:37.335Z,7.32
2022-07-30T01:15:38.753Z,7.05
2022-07-30T01:16:41.969Z,5.63
2022-07-30T01:17:43.540Z,6.28
2022-07-30T01:19:24.022Z,7.45
2022-07-30T01:20:33.190Z,5.82
2022-07-30T01:21:36.778Z,7.45
2022-07-30T01:22:47.684Z,6.07
2022-07-30T01:23:50.672Z,7.90
2022-07-30T01:25:07.500Z,6.72
2022-07-30T01:26:10.792Z,6.72
2022-07-30T01:27:18.059Z,12.07
2022-07-30T01:28:23.463Z,8.20
2022-07-30T01:29:25.473Z,6.20
2022-07-30T01:30:28.771Z,5.60
2022-07-30T01:31:30.827Z,8.45
2022-07-30T01:32:34.541Z,6.00
2022-07-30T01:33:39.065Z,8.15
2022-07-30T01:34:42.473Z,6.88
2022-07-30T01:35:46.185Z,7.97
2022-07-30T01:36:47.705Z,5.82
2022-07-30T01:37:49.366Z,6.95
2022-07-30T01:38:51.538Z,6.68
2022-07-30T01:39:53.875Z,6.72
2022-07-30T01:40:56.079Z,7.93
2022-07-30T01:41:58.024Z,6.30
2022-07-30T01:43:00.662Z,6.03
2022-07-30T01:44:03.131Z,6.07
2022-07-30T01:45:05.841Z,6.35
2022-07-30T01:46:08.613Z,8.35
2022-07-30T01:47:11.342Z,6.07
2022-07-30T01:48:13.845Z,6.63
2022-07-30T01:49:15.812Z,6.75
2022-07-30T01:50:17.687Z,5.75
2022-07-30T01:51:20.003Z,5.80
2022-07-30T01:52:25.490Z,5.38
2022-07-30T01:53:29.593Z,5.88
2022-07-30T01:54:33.368Z,5.22
2022-07-30T01:55:36.209Z,5.95
2022-07-30T01:56:38.732Z,5.50
2022-07-30T01:57:40.570Z,5.63
2022-07-30T01:58:42.690Z,6.65
2022-07-30T01:59:57.762Z,6.82
2022-07-30T02:01:00.303Z,6.53
2022-07-30T02:02:02.178Z,6.30
2022-07-30T02:03:04.492Z,6.18
2022-07-30T02:04:05.929Z,5.97
2022-07-30T02:05:09.322Z,6.00
2022-07-30T02:06:17.450Z,5.43
2022-07-30T02:07:24.272Z,6.07
2022-07-30T02:08:33.510Z,7.03
2022-07-30T02:09:45.600Z,6.05
2022-07-30T02:10:51.001Z,7.70
2022-07-30T02:12:12.818Z,7.13
2022-07-30T02:13:20.139Z,6.80
2022-07-30T02:14:24.473Z,8.32
2022-07-30T02:15:29.471Z,7.55
2022-07-30T02:16:35.456Z,10.40
2022-07-30T02:17:42.986Z,9.13
2022-07-30T02:19:06.066Z,6.22
2022-07-30T02:20:11.825Z,6.15
2022-07-30T02:21:17.526Z,9.18
2022-07-30T02:22:20.523Z,7.20
2022-07-30T02:23:26.523Z,8.55
2022-07-30T02:24:29.428Z,7.85
2022-07-30T02:25:33.345Z,7.47
2022-07-30T02:26:35.514Z,8.45
2022-07-30T02:27:38.845Z,7.57
2022-07-30T02:28:41.855Z,9.60
2022-07-30T02:29:44.392Z,8.88
2022-07-30T02:30:49.628Z,7.63
2022-07-30T02:31:52.518Z,8.80
2022-07-30T02:32:55.741Z,7.35
2022-07-30T02:33:59.892Z,7.38
2022-07-30T02:35:05.220Z,7.88
2022-07-30T02:36:11.378Z,8.98
2022-07-30T02:37:14.576Z,9.63
2022-07-30T02:38:17.551Z,6.70
2022-07-30T02:39:21.169Z,6.60
2022-07-30T02:40:23.350Z,6.32
2022-07-30T02:41:27.676Z,6.05
2022-07-30T02:42:29.863Z,7.93
2022-07-30T02:43:35.541Z,7.88
2022-07-30T02:44:40.476Z,7.57
2022-07-30T02:45:42.347Z,6.82
2022-07-30T02:46:45.567Z,7.72
2022-07-30T02:48:06.600Z,9.40
2022-07-30T02:49:09.473Z,7.82
2022-07-30T02:50:12.701Z,6.13
2022-07-30T02:51:16.054Z,9.20
2022-07-30T02:52:17.990Z,5.22
2022-07-30T02:53:20.748Z,5.22
2022-07-30T02:54:22.769Z,8.32
2022-07-30T02:55:24.912Z,6.28
2022-07-30T02:56:26.978Z,5.50
2022-07-30T02:57:31.452Z,6.22
2022-07-30T02:58:33.470Z,6.15
2022-07-30T02:59:37.808Z,7.10
2022-07-30T03:00:39.874Z,5.88
2022-07-30T03:01:42.776Z,4.53
2022-07-30T03:02:44.630Z,6.38
2022-07-30T03:03:46.489Z,6.45
2022-07-30T03:04:49.181Z,8.75
2022-07-30T03:05:51.922Z,9.20
2022-07-30T03:06:54.505Z,4.80
2022-07-30T03:07:57.803Z,6.53
2022-07-30T03:08:59.771Z,6.80
2022-07-30T03:10:01.810Z,5.72
2022-07-30T03:11:03.662Z,7.05
2022-07-30T03:12:05.723Z,7.35
2022-07-30T03:13:10.882Z,6.57
2022-07-30T03:14:12.382Z,6.30
2022-07-30T03:15:14.336Z,5.00
2022-07-30T03:16:17.110Z,6.68
2022-07-30T03:17:19.325Z,8.82
2022-07-30T03:18:21.206Z,7.30
2022-07-30T03:19:23.742Z,4.82
2022-07-30T03:20:27.306Z,8.63
2022-07-30T03:21:28.978Z,6.18
2022-07-30T03:22:33.283Z,6.70
2022-07-30T03:23:37.549Z,4.60
2022-07-30T03:24:39.923Z,6.43
2022-07-30T03:25:47.801Z,7.18
2022-07-30T03:26:51.374Z,7.38
2022-07-30T03:27:54.168Z,5.90
2022-07-30T03:28:56.370Z,8.48
2022-07-30T03:29:58.114Z,6.70
2022-07-30T03:30:59.730Z,4.55
2022-07-30T03:32:01.724Z,6.95
2022-07-30T03:33:05.314Z,4.95
2022-07-30T03:34:07.513Z,8.88
2022-07-30T03:35:17.452Z,11.07
2022-07-30T03:36:22.158Z,11.02
2022-07-30T03:37:24.260Z,14.52
2022-07-30T03:38:26.549Z,10.85
2022-07-30T03:39:30.084Z,11.23
2022-07-30T03:40:32.361Z,8.93
2022-07-30T03:41:35.465Z,6.63
2022-07-30T03:42:37.783Z,7.82
2022-07-30T03:43:40.330Z,6.95
2022-07-30T03:44:42.546Z,8.32
2022-07-30T03:45:44.557Z,8.73
2022-07-30T03:46:47.636Z,9.05
2022-07-30T03:47:49.302Z,6.65
2022-07-30T03:48:52.272Z,6.28
2022-07-30T03:49:54.523Z,8.88
2022-07-30T03:50:56.214Z,8.07
2022-07-30T03:51:57.902Z,9.35
2022-07-30T03:53:00.552Z,5.95
2022-07-30T03:54:04.364Z,6.45
2022-07-30T03:55:27.167Z,6.93
2022-07-30T03:56:51.266Z,7.40
2022-07-30T03:58:03.675Z,7.07
2022-07-30T03:59:08.025Z,11.30
2022-07-30T04:00:14.443Z,8.65
2022-07-30T04:01:18.388Z,6.32
2022-07-30T04:02:20.230Z,8.80
2022-07-30T04:03:36.975Z,6.78
2022-07-30T04:04:43.424Z,8.68
2022-07-30T04:05:45.917Z,8.07
2022-07-30T04:06:47.794Z,5.63
2022-07-30T04:07:49.251Z,7.15
2022-07-30T04:08:54.167Z,6.13
2022-07-30T04:09:56.158Z,6.13
2022-07-30T04:11:11.330Z,9.18
2022-07-30T04:12:38.749Z,7.55
2022-07-30T04:13:40.412Z,6.43
2022-07-30T04:14:42.978Z,5.10
2022-07-30T04:16:37.075Z,8.38
2022-07-30T04:17:22.313Z,6.03
2022-07-30T04:18:24.550Z,6.00
2022-07-30T04:19:30.818Z,6.65
2022-07-30T04:20:39.712Z,9.60
2022-07-30T04:21:41.714Z,8.77
2022-07-30T04:22:45.375Z,6.20
2022-07-30T04:24:04.459Z,6.18
2022-07-30T04:25:08.708Z,7.22
2022-07-30T04:26:10.499Z,5.25
2022-07-30T04:27:12.356Z,5.55
2022-07-30T04:28:14.353Z,6.55
2022-07-30T04:29:18.045Z,6.80
2022-07-30T04:30:19.703Z,7.85
2022-07-30T04:31:21.692Z,6.38
2022-07-30T04:32:23.400Z,4.78
2022-07-30T04:33:30.517Z,6.03
2022-07-30T04:34:55.482Z,5.45
2022-07-30T04:36:16.778Z,6.07
2022-07-30T04:37:19.225Z,5.35
2022-07-30T04:38:20.641Z,8.48
2022-07-30T04:39:25.205Z,5.82
2022-07-30T04:40:26.602Z,6.90
2022-07-30T04:41:28.099Z,5.47
2022-07-30T04:42:59.694Z,5.20
2022-07-30T04:44:01.503Z,7.18
2022-07-30T04:45:04.403Z,6.05
2022-07-30T04:46:14.153Z,5.47
2022-07-30T04:47:16.048Z,5.53
2022-07-30T04:48:30.667Z,6.68
2022-07-30T04:49:42.135Z,6.97
2022-07-30T04:50:45.603Z,7.30
2022-07-30T04:51:50.907Z,7.88
2022-07-30T04:52:53.938Z,6.53
2022-07-30T04:54:01.828Z,5.00
2022-07-30T04:55:04.247Z,5.63
2022-07-30T04:56:06.086Z,5.53
2022-07-30T04:57:07.967Z,7.90
2022-07-30T04:58:09.597Z,6.95
2022-07-30T04:59:11.262Z,7.50
2022-07-30T05:00:12.964Z,7.68
2022-07-30T05:01:19.078Z,5.40
2022-07-30T05:02:22.373Z,4.80
2022-07-30T05:03:24.839Z,6.40
2022-07-30T05:04:28.651Z,5.55
2022-07-30T05:05:32.514Z,9.45
2022-07-30T05:06:34.346Z,7.50
2022-07-30T05:07:37.116Z,8.95
2022-07-30T05:08:39.733Z,8.98
2022-07-30T05:09:44.061Z,6.60
2022-07-30T05:10:45.782Z,6.95
2022-07-30T05:11:52.197Z,7.38
2022-07-30T05:12:53.535Z,5.85
2022-07-30T05:13:56.853Z,6.85
2022-07-30T05:14:58.277Z,5.75
2022-07-30T05:15:59.699Z,7.43
2022-07-30T05:17:01.284Z,6.88
2022-07-30T05:18:03.503Z,7.53
2022-07-30T05:19:08.109Z,15.15
2022-07-30T05:20:11.087Z,11.00
2022-07-30T05:21:28.714Z,9.60
2022-07-30T05:22:31.673Z,9.38
2022-07-30T05:23:33.222Z,11.85
2022-07-30T05:24:53.639Z,13.25
2022-07-30T05:25:55.082Z,14.48
2022-07-30T05:27:05.862Z,14.05
2022-07-30T05:28:07.250Z,14.63
2022-07-30T05:29:14.926Z,13.45
2022-07-30T05:30:42.046Z,13.48
2022-07-30T05:31:49.333Z,15.80
2022-07-30T05:32:51.633Z,11.30
2022-07-30T05:33:53.241Z,11.18
2022-07-30T05:35:10.002Z,12.63
2022-07-30T05:36:11.605Z,17.55
2022-07-30T05:37:14.200Z,11.40
2022-07-30T05:38:16.052Z,13.75
2022-07-30T05:39:30.455Z,12.10
2022-07-30T05:40:57.829Z,12.25
2022-07-30T05:42:31.465Z,13.52
2022-07-30T05:43:33.447Z,11.65
2022-07-30T05:44:44.423Z,13.27
2022-07-30T05:45:48.766Z,15.32
2022-07-30T05:46:50.475Z,16.33
2022-07-30T05:47:51.833Z,19.05
2022-07-30T05:48:53.536Z,15.25
2022-07-30T05:49:54.989Z,19.75
2022-07-30T05:50:56.374Z,15.77
2022-07-30T05:51:58.224Z,17.83
2022-07-30T05:53:00.739Z,20.13
2022-07-30T05:54:28.008Z,21.15
2022-07-30T05:55:47.844Z,32.80
2022-07-30T05:57:11.827Z,34.33
2022-07-30T05:58:14.598Z,38.95
2022-07-30T05:59:15.958Z,35.67
2022-07-30T06:00:37.573Z,29.70
2022-07-30T06:01:39.057Z,46.13
2022-07-30T06:02:48.711Z,43.33
2022-07-30T06:04:08.775Z,48.53
2022-07-30T06:05:16.512Z,47.97
2022-07-30T06:06:22.668Z,46.20
2022-07-30T06:07:24.832Z,50.83
2022-07-30T06:08:28.390Z,52.30
2022-07-30T06:09:36.641Z,53.20
2022-07-30T06:10:39.566Z,53.42
2022-07-30T06:11:41.008Z,55.83
2022-07-30T06:12:43.059Z,56.47
2022-07-30T06:13:45.077Z,61.75
2022-07-30T06:14:46.509Z,68.30
2022-07-30T06:15:52.677Z,61.97
2022-07-30T06:16:54.434Z,56.78
2022-07-30T06:18:01.877Z,60.50
2022-07-30T06:19:23.857Z,41.33
2022-07-30T06:20:25.244Z,33.20
2022-07-30T06:22:01.753Z,32.20
2022-07-30T06:23:05.917Z,30.58
2022-07-30T06:24:21.744Z,26.63
2022-07-30T06:25:39.917Z,17.25
2022-07-30T06:26:41.617Z,19.48
2022-07-30T06:27:44.058Z,15.73
2022-07-30T06:28:45.889Z,15.98
2022-07-30T06:30:13.610Z,16.45
2022-07-30T06:31:16.523Z,16.90
2022-07-30T06:32:19.478Z,11.00
2022-07-30T06:33:21.350Z,11.70
2022-07-30T06:34:22.903Z,12.63
2022-07-30T06:35:24.327Z,10.15
2022-07-30T06:36:26.381Z,12.15
2022-07-30T06:38:06.210Z,15.23
2022-07-30T06:39:05.635Z,19.20
2022-07-30T06:40:30.200Z,17.05
2022-07-30T06:41:50.506Z,12.63
2022-07-30T06:42:52.030Z,14.20
2022-07-30T06:44:08.069Z,10.20
2022-07-30T06:45:35.883Z,10.15
2022-07-30T06:46:50.313Z,9.93
2022-07-30T06:47:57.233Z,8.38
2022-07-30T06:48:59.039Z,9.95
2022-07-30T06:50:01.617Z,8.40
2022-07-30T06:51:05.222Z,7.55
2022-07-30T06:52:07.878Z,8.25
2022-07-30T06:53:09.926Z,8.50
2022-07-30T06:54:31.373Z,7.68
2022-07-30T06:55:58.238Z,10.65
2022-07-30T06:57:05.728Z,7.57
2022-07-30T06:58:10.898Z,8.45
2022-07-30T06:59:31.022Z,7.60
2022-07-30T07:00:47.484Z,6.70
2022-07-30T07:01:49.994Z,7.50
2022-07-30T07:02:51.613Z,7.88
2022-07-30T07:04:00.443Z,8.88
2022-07-30T07:05:02.189Z,9.57
2022-07-30T07:06:05.198Z,7.47
2022-07-30T07:07:12.214Z,9.30
2022-07-30T07:08:14.772Z,6.63
2022-07-30T07:09:21.586Z,5.38
2022-07-30T07:10:33.019Z,7.25
2022-07-30T07:11:44.287Z,7.40
2022-07-30T07:12:51.954Z,6.55
2022-07-30T07:13:55.159Z,7.55
2022-07-30T07:15:06.265Z,8.38
2022-07-30T07:16:07.991Z,5.35
2022-07-30T07:17:11.491Z,6.95
2022-07-30T07:18:31.385Z,7.60
2022-07-30T07:19:39.900Z,6.72
2022-07-30T07:21:01.619Z,6.10
2022-07-30T07:22:03.707Z,5.78
2022-07-30T07:23:09.253Z,9.02
2022-07-30T07:24:13.687Z,8.05
2022-07-30T07:25:29.271Z,8.52
2022-07-30T07:26:31.401Z,9.45
2022-07-30T07:27:32.872Z,8.32
2022-07-30T07:28:36.426Z,10.82
2022-07-30T07:29:37.965Z,7.95
2022-07-30T07:30:39.491Z,9.15
2022-07-30T07:32:05.135Z,11.02
2022-07-30T07:33:04.236Z,6.10
2022-07-30T07:34:05.624Z,6.07
2022-07-30T07:35:07.315Z,6.93
2022-07-30T07:36:12.058Z,7.18
2022-07-30T07:37:15.227Z,6.07
2022-07-30T07:38:19.424Z,6.45
2022-07-30T07:39:21.632Z,8.10
2022-07-30T07:40:24.604Z,10.13
2022-07-30T07:41:26.449Z,7.45
2022-07-30T07:42:28.094Z,7.47
2022-07-30T07:43:31.673Z,8.57
2022-07-30T07:44:34.593Z,5.57
2022-07-30T07:45:35.974Z,7.63
2022-07-30T07:46:41.673Z,7.18
2022-07-30T07:47:51.450Z,9.20
2022-07-30T07:49:21.239Z,8.90
2022-07-30T07:50:26.827Z,9.07
2022-07-30T07:51:47.783Z,8.82
2022-07-30T07:52:51.166Z,14.20
2022-07-30T07:54:19.012Z,8.05
2022-07-30T07:55:15.367Z,9.77
2022-07-30T07:56:17.330Z,7.47
2022-07-30T07:57:19.387Z,8.35
2022-07-30T07:58:25.452Z,9.65
2022-07-30T07:59:36.210Z,6.78
2022-07-30T08:00:45.779Z,10.13
2022-07-30T08:01:47.681Z,7.10
2022-07-30T08:03:20.746Z,7.45
2022-07-30T08:04:22.205Z,7.75
2022-07-30T08:05:55.822Z,8.10
2022-07-30T08:07:23.577Z,6.72
2022-07-30T08:08:45.610Z,6.47
2022-07-30T08:10:25.514Z,7.93
2022-07-30T08:11:26.908Z,8.52
2022-07-30T08:12:48.293Z,11.07
2022-07-30T08:14:07.978Z,9.13
2022-07-30T08:15:32.231Z,7.63
2022-07-30T08:16:52.244Z,7.50
2022-07-30T08:18:11.074Z,7.55
2022-07-30T08:19:44.557Z,9.98
2022-07-30T08:20:51.545Z,10.70
2022-07-30T08:21:59.359Z,8.05
2022-07-30T08:23:04.477Z,9.05
2022-07-30T08:24:06.426Z,8.50
2022-07-30T08:25:08.293Z,7.90
2022-07-30T08:26:10.006Z,7.32
2022-07-30T08:27:11.382Z,8.05
2022-07-30T08:28:27.583Z,7.55
2022-07-30T08:29:34.275Z,9.90
2022-07-30T08:30:36.951Z,9.73
2022-07-30T08:31:38.398Z,6.80
2022-07-30T08:32:40.011Z,11.48
2022-07-30T08:33:41.478Z,6.57
2022-07-30T08:34:43.176Z,7.43
2022-07-30T08:35:52.825Z,9.00
2022-07-30T08:37:00.523Z,8.55
2022-07-30T08:38:01.933Z,8.52
2022-07-30T08:39:03.330Z,7.13
2022-07-30T08:40:05.065Z,9.43
2022-07-30T08:41:07.506Z,9.30
2022-07-30T08:42:09.625Z,7.82
2022-07-30T08:43:11.575Z,5.45
2022-07-30T08:44:13.157Z,6.43
2022-07-30T08:45:17.398Z,8.55
2022-07-30T08:46:19.823Z,6.13
2022-07-30T08:47:31.709Z,7.55
2022-07-30T08:48:45.543Z,10.73
2022-07-30T08:49:48.892Z,9.05
2022-07-30T08:50:52.755Z,5.00
2022-07-30T08:52:14.454Z,7.13
2022-07-30T08:53:20.590Z,8.75
2022-07-30T08:54:22.329Z,7.97
2022-07-30T08:55:25.175Z,5.53
2022-07-30T08:56:28.339Z,6.70
2022-07-30T08:57:31.026Z,5.78
2022-07-30T08:58:36.470Z,7.28
2022-07-30T09:00:00.004Z,5.78
2022-07-30T09:01:02.007Z,4.10
2022-07-30T09:02:05.850Z,8.80
2022-07-30T09:03:18.500Z,5.45
2022-07-30T09:04:19.922Z,4.88
2022-07-30T09:05:21.973Z,6.38
2022-07-30T09:06:23.373Z,8.30
2022-07-30T09:07:24.915Z,6.05
2022-07-30T09:08:26.339Z,7.22
2022-07-30T09:09:27.780Z,6.00
2022-07-30T09:10:33.070Z,6.32
2022-07-30T09:11:35.947Z,8.70
2022-07-30T09:12:38.778Z,5.13
2022-07-30T09:13:44.580Z,5.10
2022-07-30T09:15:01.277Z,4.82
2022-07-30T09:16:03.318Z,5.72
2022-07-30T09:17:06.576Z,5.10
2022-07-30T09:18:08.582Z,6.05
2022-07-30T09:19:15.444Z,4.85
2022-07-30T09:20:17.404Z,4.15
2022-07-30T09:21:26.087Z,6.20
2022-07-30T09:22:48.910Z,5.47
2022-07-30T09:24:19.308Z,6.40
2022-07-30T09:25:43.319Z,8.57
2022-07-30T09:27:05.243Z,6.18
2022-07-30T09:28:30.921Z,4.28
2022-07-30T09:29:57.269Z,6.95
2022-07-30T09:31:18.083Z,5.50
2022-07-30T09:32:58.554Z,5.15
2022-07-30T09:34:24.030Z,4.07
2022-07-30T09:35:34.074Z,6.72
2022-07-30T09:36:44.360Z,12.25
2022-07-30T09:38:06.598Z,5.57
2022-07-30T09:39:29.280Z,8.38
2022-07-30T09:40:53.265Z,4.60
2022-07-30T09:42:25.703Z,9.80
2022-07-30T09:43:28.472Z,6.28
2022-07-30T09:44:45.057Z,4.93
2022-07-30T09:45:57.505Z,7.72
2022-07-30T09:46:59.285Z,4.20
2022-07-30T09:48:19.794Z,6.18
2022-07-30T09:49:22.872Z,4.63
2022-07-30T09:50:30.467Z,7.75
2022-07-30T09:51:54.604Z,7.10
2022-07-30T09:53:06.762Z,6.15
2022-07-30T09:54:08.599Z,4.97
2022-07-30T09:55:11.493Z,3.75
2022-07-30T09:56:24.028Z,5.57
2022-07-30T09:57:27.813Z,5.13
2022-07-30T09:58:39.549Z,5.07
2022-07-30T09:59:41.866Z,4.78
2022-07-30T10:00:44.167Z,3.75
2022-07-30T10:02:03.764Z,6.07
2022-07-30T10:03:42.049Z,3.55
2022-07-30T10:05:14.413Z,4.55
2022-07-30T10:06:16.383Z,5.35
2022-07-30T10:07:25.720Z,4.30
2022-07-30T10:08:45.981Z,3.95
2022-07-30T10:09:49.208Z,6.50
2022-07-30T10:10:52.366Z,3.92
2022-07-30T10:11:54.992Z,6.55
2022-07-30T10:12:58.352Z,5.10
2022-07-30T10:14:01.494Z,5.35
2022-07-30T10:15:06.120Z,4.00
2022-07-30T10:16:09.027Z,5.13
2022-07-30T10:17:11.829Z,4.85
2022-07-30T10:18:14.956Z,7.15
2022-07-30T10:19:40.251Z,6.38
2022-07-30T10:21:05.551Z,6.10
2022-07-30T10:22:25.719Z,8.27
2022-07-30T10:23:50.694Z,4.68
2022-07-30T10:25:16.146Z,7.13
2022-07-30T10:26:36.854Z,6.15
2022-07-30T10:27:58.183Z,4.10
2022-07-30T10:29:04.855Z,12.05
2022-07-30T10:30:07.326Z,2.90
2022-07-30T10:31:46.873Z,3.65
2022-07-30T10:32:37.811Z,8.27
2022-07-30T10:33:43.890Z,7.03
2022-07-30T10:34:48.479Z,2.80
2022-07-30T10:35:50.220Z,4.70
2022-07-30T10:36:57.816Z,3.47
2022-07-30T10:37:59.433Z,5.47
2022-07-30T10:39:01.069Z,3.60
2022-07-30T10:40:12.046Z,5.22
2022-07-30T10:41:44.347Z,4.13
2022-07-30T10:42:43.693Z,7.95
2022-07-30T10:43:54.066Z,6.43
2022-07-30T10:45:04.335Z,2.83
2022-07-30T10:46:09.297Z,4.40
2022-07-30T10:47:25.980Z,4.93
2022-07-30T10:48:32.943Z,5.38
2022-07-30T10:49:41.144Z,5.38
2022-07-30T10:50:57.243Z,4.15
2022-07-30T10:51:58.977Z,3.17
2022-07-30T10:53:01.539Z,7.43
2022-07-30T10:54:03.194Z,4.57
2022-07-30T10:55:12.187Z,5.72
2022-07-30T10:56:25.444Z,5.90
2022-07-30T10:57:32.204Z,3.55
2022-07-30T10:58:54.189Z,2.97
2022-07-30T10:59:58.680Z,4.97
2022-07-30T11:01:01.842Z,6.43
2022-07-30T11:02:09.741Z,5.35
2022-07-30T11:03:40.177Z,4.75
2022-07-30T11:04:43.201Z,4.90
2022-07-30T11:05:48.805Z,2.72
2022-07-30T11:06:51.423Z,3.80
2022-07-30T11:07:52.780Z,3.38
2022-07-30T11:08:57.289Z,3.47
2022-07-30T11:10:05.251Z,3.20
2022-07-30T11:12:04.905Z,5.30
2022-07-30T11:12:47.363Z,4.30
2022-07-30T11:14:00.897Z,5.55
2022-07-30T11:15:07.132Z,4.45
2022-07-30T11:16:22.533Z,4.13
2022-07-30T11:17:24.202Z,4.57
2022-07-30T11:18:26.343Z,3.83
2022-07-30T11:19:56.432Z,4.55
2022-07-30T11:21:08.932Z,2.35
2022-07-30T11:22:25.680Z,4.15
2022-07-30T11:23:27.021Z,4.68
2022-07-30T11:24:45.394Z,2.55
2022-07-30T11:25:51.084Z,2.63
2022-07-30T11:26:53.605Z,6.20
2022-07-30T11:27:54.985Z,5.18
2022-07-30T11:28:56.332Z,6.13
2022-07-30T11:29:58.730Z,3.20
2022-07-30T11:31:00.192Z,4.22
2022-07-30T11:32:21.521Z,4.53
2022-07-30T11:33:23.567Z,4.13
2022-07-30T11:34:34.547Z,3.05
2022-07-30T11:35:36.017Z,2.95
2022-07-30T11:36:37.595Z,5.03
2022-07-30T11:37:57.561Z,4.22
2022-07-30T11:39:06.915Z,3.78
2022-07-30T11:40:09.187Z,5.40
2022-07-30T11:41:10.651Z,4.15
2022-07-30T11:42:30.840Z,2.70
2022-07-30T11:43:35.443Z,5.00
2022-07-30T11:44:37.686Z,2.53
2022-07-30T11:45:39.498Z,3.58
2022-07-30T11:46:48.060Z,2.88
2022-07-30T11:47:51.228Z,4.38
2022-07-30T11:48:57.353Z,3.97
2022-07-30T11:49:58.974Z,4.22
2022-07-30T11:51:03.800Z,2.83
2022-07-30T11:52:05.449Z,4.70
2022-07-30T11:53:10.724Z,4.03
2022-07-30T11:54:12.599Z,3.40
2022-07-30T11:55:21.773Z,6.78
2022-07-30T11:56:23.100Z,4.00
2022-07-30T11:57:40.311Z,5.07
2022-07-30T11:58:41.668Z,4.10
2022-07-30T11:59:56.094Z,3.20
2022-07-30T12:01:13.849Z,3.70
2022-07-30T12:02:15.230Z,3.13
2022-07-30T12:03:18.944Z,2.67
2022-07-30T12:04:20.324Z,4.35
2022-07-30T12:05:26.060Z,4.72
2022-07-30T12:06:27.491Z,3.65
2022-07-30T12:07:28.955Z,4.53
2022-07-30T12:08:38.774Z,3.97
2022-07-30T12:09:40.218Z,3.45
2022-07-30T12:10:54.755Z,4.93
2022-07-30T12:11:56.682Z,5.38
2022-07-30T12:13:14.198Z,6.18
2022-07-30T12:14:15.585Z,4.63
2022-07-30T12:15:33.362Z,5.05
2022-07-30T12:16:34.806Z,5.07
2022-07-30T12:17:45.650Z,3.95
2022-07-30T12:18:47.304Z,5.03
2022-07-30T12:19:48.946Z,2.00
2022-07-30T12:20:54.697Z,5.15
2022-07-30T12:21:59.660Z,5.53
2022-07-30T12:23:02.499Z,3.25
2022-07-30T12:24:15.707Z,5.35
2022-07-30T12:25:17.370Z,1.70
2022-07-30T12:26:22.724Z,3.13
2022-07-30T12:27:24.726Z,3.33
2022-07-30T12:28:26.838Z,3.15
2022-07-30T12:29:28.229Z,6.45
2022-07-30T12:30:29.595Z,5.00
2022-07-30T12:31:31.124Z,2.60
2022-07-30T12:32:32.802Z,4.00
2022-07-30T12:33:34.121Z,4.68
2022-07-30T12:34:35.506Z,4.30
2022-07-30T12:35:44.139Z,3.35
2022-07-30T12:36:45.548Z,2.70
2022-07-30T12:38:02.466Z,3.97
2022-07-30T12:39:04.881Z,3.15
2022-07-30T12:40:10.577Z,4.18
2022-07-30T12:41:15.825Z,3.35
2022-07-30T12:42:20.480Z,2.55
2022-07-30T12:43:40.606Z,2.58
2022-07-30T12:44:44.468Z,3.97
2022-07-30T12:45:51.985Z,2.72
2022-07-30T12:46:55.490Z,2.42
2022-07-30T12:47:57.783Z,4.00
2022-07-30T12:49:08.191Z,4.65
2022-07-30T12:50:23.349Z,5.60
2022-07-30T12:51:26.736Z,3.97
2022-07-30T12:52:29.335Z,3.05
2022-07-30T12:53:32.553Z,3.38
2022-07-30T12:54:33.869Z,4.35
2022-07-30T12:55:35.642Z,2.47
2022-07-30T12:56:39.969Z,3.75
2022-07-30T12:58:02.907Z,3.67
2022-07-30T12:59:19.858Z,2.90
2022-07-30T13:00:26.629Z,2.95
2022-07-30T13:01:41.798Z,3.97
2022-07-30T13:02:43.260Z,2.40
2022-07-30T13:03:45.491Z,2.30
2022-07-30T13:04:59.050Z,4.10
2022-07-30T13:06:14.782Z,5.85
2022-07-30T13:07:16.736Z,3.25
2022-07-30T13:08:18.255Z,3.72
2022-07-30T13:09:20.341Z,6.45
2022-07-30T13:10:22.875Z,2.90
2022-07-30T13:11:38.779Z,3.38
2022-07-30T13:12:40.198Z,2.85
2022-07-30T13:13:41.528Z,3.38
2022-07-30T13:14:42.912Z,2.67
2022-07-30T13:15:46.436Z,2.85
2022-07-30T13:16:56.874Z,2.10
2022-07-30T13:17:58.480Z,2.70
2022-07-30T13:18:59.823Z,3.67
2022-07-30T13:20:01.288Z,2.88
2022-07-30T13:21:03.325Z,2.38
2022-07-30T13:22:04.665Z,3.63
2022-07-30T13:23:06.532Z,4.13
2022-07-30T13:24:08.297Z,3.78
2022-07-30T13:25:11.051Z,3.38
2022-07-30T13:26:12.447Z,2.17
2022-07-30T13:27:13.937Z,3.22
2022-07-30T13:28:15.283Z,5.82
2022-07-30T13:29:16.671Z,3.13
2022-07-30T13:30:18.285Z,3.40
2022-07-30T13:31:21.341Z,3.42
2022-07-30T13:32:23.249Z,5.95
2022-07-30T13:33:25.153Z,2.88
2022-07-30T13:34:27.845Z,2.40
2022-07-30T13:35:29.990Z,2.38
2022-07-30T13:36:31.571Z,3.08
2022-07-30T13:37:37.892Z,3.80
2022-07-30T13:38:40.156Z,2.60
2022-07-30T13:39:41.570Z,3.22
2022-07-30T13:40:42.956Z,2.65
2022-07-30T13:41:44.339Z,1.55
2022-07-30T13:42:45.685Z,3.42
2022-07-30T13:43:47.024Z,3.55
2022-07-30T13:44:48.367Z,4.30
2022-07-30T13:45:50.399Z,3.97
2022-07-30T13:46:51.786Z,3.63
2022-07-30T13:47:53.124Z,1.67
2022-07-30T13:48:54.878Z,2.83
2022-07-30T13:49:56.571Z,4.75
2022-07-30T13:50:58.089Z,2.45
2022-07-30T13:51:59.421Z,4.60
2022-07-30T13:53:02.570Z,2.75
2022-07-30T13:54:05.040Z,4.28
2022-07-30T13:55:06.708Z,3.55
2022-07-30T13:56:12.545Z,3.70
2022-07-30T13:57:14.334Z,2.78
2022-07-30T13:58:15.681Z,2.95
2022-07-30T13:59:17.042Z,2.53
2022-07-30T14:00:18.417Z,3.22
2022-07-30T14:01:19.842Z,1.77
2022-07-30T14:02:21.238Z,3.13
2022-07-30T14:03:22.619Z,4.50
2022-07-30T14:04:24.212Z,2.80
2022-07-30T14:05:25.610Z,2.75
2022-07-30T14:06:27.053Z,2.17
2022-07-30T14:07:28.407Z,1.83
2022-07-30T14:08:31.378Z,4.00
2022-07-30T14:09:33.074Z,5.47
2022-07-30T14:10:37.678Z,4.20
2022-07-30T14:11:39.074Z,4.32
2022-07-30T14:12:40.438Z,2.75
2022-07-30T14:13:41.851Z,3.67
2022-07-30T14:14:43.620Z,2.65
2022-07-30T14:15:45.164Z,5.60
2022-07-30T14:16:48.804Z,3.83
2022-07-30T14:17:56.088Z,5.25
2022-07-30T14:18:58.070Z,5.75
2022-07-30T14:19:59.417Z,4.43
2022-07-30T14:21:01.149Z,5.88
2022-07-30T14:22:02.501Z,3.05
2022-07-30T14:23:03.850Z,1.65
2022-07-30T14:24:06.100Z,2.60
2022-07-30T14:25:10.174Z,3.40
2022-07-30T14:26:11.529Z,2.40
2022-07-30T14:27:13.070Z,2.33
2022-07-30T14:28:14.535Z,2.85
2022-07-30T14:29:15.874Z,2.28
2022-07-30T14:30:17.269Z,2.75
2022-07-30T14:31:18.648Z,2.97
2022-07-30T14:32:20.067Z,4.35
2022-07-30T14:33:24.697Z,3.03
2022-07-30T14:34:26.121Z,3.40
2022-07-30T14:35:27.483Z,2.35
2022-07-30T14:36:30.050Z,2.05
2022-07-30T14:37:31.516Z,2.20
2022-07-30T14:38:32.914Z,5.15
2022-07-30T14:39:34.553Z,5.30
2022-07-30T14:40:35.978Z,6.60